Spirit Of Vi — CFL2070 — position and weather

sailwx.info

Track history (hours):
 
Tides and Currents Weather Stations Pressure Air Temp Water Temp Dewpoint Dewpoint Depression Visibility Wind Speed Wind Dir Waves Ship Positions

Spirit Of Vi

Last reported at 2020-Apr-02 21:31 UTC. Time now 2020-Apr-02 23:01 UTC.
Position N 48°41' W 123°25'.

Length 167 m; draft 4.8 m.

Type: Passenger vessel. MMSI: 316001269.

Date/timePositionNaut miles runAvg speedWind from/ knotsBaromVisibWave heightAir tempDewpointWater temp
2020-Apr-02 21:31N 48°41' W 123°25'815.6
2020-Apr-02 21:01N 48°49' W 123°21'14 9.4
2020-Apr-02 19:31N 49°00' W 123°08'816.7
2020-Apr-02 19:01N 48°54' W 123°16'815.2
2020-Apr-02 18:31N 48°47' W 123°21'16 5.2
2020-Apr-02 15:30N 49°00' W 123°08'2210.8
2020-Apr-02 13:30N 48°41' W 123°25'0 0.0
2020-Apr-02 12:00N 48°41' W 123°25'0 0.0
2020-Apr-02 10:58N 48°41' W 123°25'0 0.0
2020-Apr-02 10:28N 48°41' W 123°25'0 0.0
2020-Apr-02 09:28N 48°41' W 123°25'0 0.0
2020-Apr-02 07:58N 48°41' W 123°25'0 0.0
2020-Apr-02 07:28N 48°41' W 123°25'0 0.0
2020-Apr-02 05:31N 48°41' W 123°25'6 2.1
2020-Apr-02 02:30N 48°47' W 123°21'612.9
2020-Apr-02 02:00N 48°41' W 123°25'13 4.3
2020-Apr-01 23:00N 48°53' W 123°17'714.1
2020-Apr-01 22:31N 48°47' W 123°21'6 5.8
2020-Apr-01 21:30N 48°41' W 123°25'815.5
2020-Apr-01 21:01N 48°49' W 123°21'2 0.7
2020-Apr-01 18:31N 48°47' W 123°21'611.9
2020-Apr-01 18:00N 48°41' W 123°25'7 7.5
2020-Apr-01 17:00N 48°48' W 123°21'815.2
2020-Apr-01 16:30N 48°55' W 123°16'15 2.5
2020-Apr-01 10:26N 48°41' W 123°25'0 0.0
2020-Apr-01 07:59N 48°41' W 123°25'0 0.0
2020-Apr-01 07:29N 48°41' W 123°25'0 0.0
2020-Mar-31 22:00N 48°41' W 123°25'8 7.8
2020-Mar-31 21:00N 48°49' W 123°21'713.5
2020-Mar-31 20:30N 48°55' W 123°16'15 5.8
2020-Mar-31 18:00N 48°41' W 123°25'1610.6
2020-Mar-31 16:30N 48°56' W 123°15'612.8
2020-Mar-31 16:00N 49°00' W 123°08'22 4.9
2020-Mar-31 11:29N 48°41' W 123°25'0 0.0
2020-Mar-31 10:59N 48°41' W 123°25'0 0.0
2020-Mar-31 09:59N 48°41' W 123°25'0 0.0
2020-Mar-31 09:29N 48°41' W 123°25'0 0.0
2020-Mar-31 08:29N 48°41' W 123°25'0 0.0
2020-Mar-31 07:29N 48°41' W 123°25'0 0.0
2020-Mar-31 06:29N 48°41' W 123°25'7 5.0
2020-Mar-31 05:00N 48°48' W 123°21'713.8
2020-Mar-31 04:30N 48°55' W 123°16'8 7.9
2020-Mar-31 03:30N 49°00' W 123°08'13 5.4
2020-Mar-31 01:00N 48°50' W 123°21'13 8.8
2020-Mar-30 23:31N 49°00' W 123°08'2210.9
2020-Mar-30 21:30N 48°41' W 123°25'714.5
2020-Mar-30 21:00N 48°48' W 123°21'7 2.0
2020-Mar-30 17:30N 48°42' W 123°24'1615.6
2020-Mar-30 16:31N 48°56' W 123°15'9 4.6
2020-Mar-30 14:30N 48°47' W 123°21'713.3
2020-Mar-30 14:01N 48°41' W 123°25'0 0.0
2020-Mar-30 12:00N 48°41' W 123°25'0 0.0
2020-Mar-30 10:30N 48°41' W 123°25'0 0.0
2020-Mar-30 08:30N 48°41' W 123°25'0 0.0
2020-Mar-30 08:00N 48°41' W 123°25'0 0.0
2020-Mar-30 06:00N 48°41' W 123°25'0 0.0
2020-Mar-30 05:30N 48°41' W 123°25'1414.3
2020-Mar-30 04:30N 48°55' W 123°17'14 5.7
2020-Mar-30 02:00N 48°41' W 123°25'1 2.6
2020-Mar-30 01:31N 48°42' W 123°23'5 1.8
2020-Mar-29 22:30N 48°47' W 123°20'5 5.4
2020-Mar-29 21:31N 48°42' W 123°23'1615.7
2020-Mar-29 20:31N 48°56' W 123°13'5 5.5
2020-Mar-29 19:31N 49°00' W 123°08'917.8
2020-Mar-29 19:00N 48°53' W 123°17'1312.9
2020-Mar-29 18:00N 48°41' W 123°25'0 0.3
2020-Mar-29 17:31N 48°41' W 123°25'1515.0
2020-Mar-29 16:30N 48°55' W 123°16'8 4.1
2020-Mar-29 14:30N 48°48' W 123°21'7 6.9
2020-Mar-29 13:30N 48°41' W 123°25'0 0.0
2020-Mar-29 13:00N 48°41' W 123°25'0 0.0
2020-Mar-29 12:27N 48°41' W 123°25'0 0.0
2020-Mar-29 11:30N 48°41' W 123°25'0 0.0
2020-Mar-29 08:59N 48°41' W 123°25'21 3.9
2020-Mar-29 03:30N 48°60' W 123°09'1514.5
2020-Mar-29 02:30N 48°48' W 123°21'15 6.0
2020-Mar-29 00:00N 49°00' W 123°08'0 0.1
2020-Mar-28 23:30N 49°00' W 123°08'13 5.0
2020-Mar-28 21:00N 48°51' W 123°21'11 7.2
2020-Mar-28 19:30N 48°59' W 123°10'1 0.2
2020-Mar-28 15:30N 48°59' W 123°09'21 6.9
2020-Mar-28 12:29N 48°41' W 123°25'0 0.0
2020-Mar-28 11:59N 48°41' W 123°25'0 0.0
2020-Mar-28 11:29N 48°41' W 123°25'0 0.0
2020-Mar-28 08:29N 48°41' W 123°25'0 0.0
2020-Mar-28 06:26N 48°41' W 123°25'0 0.0
2020-Mar-28 05:59N 48°41' W 123°25'11 3.8
2020-Mar-28 03:01N 48°52' W 123°18'917.0
2020-Mar-28 02:30N 48°44' W 123°24'3 5.8
2020-Mar-28 02:00N 48°41' W 123°25'10 9.9
2020-Mar-28 01:00N 48°51' W 123°21'6 2.2
2020-Mar-27 22:31N 48°46' W 123°22'4 4.1
2020-Mar-27 21:30N 48°42' W 123°24'7 1.7
2020-Mar-27 17:00N 48°49' W 123°21'713.9
2020-Mar-27 16:31N 48°55' W 123°16'815.0
2020-Mar-27 16:00N 49°00' W 123°08'9 9.1
2020-Mar-27 15:00N 48°53' W 123°17'13 8.7
2020-Mar-27 13:30N 48°41' W 123°25'0 0.0
2020-Mar-27 12:28N 48°41' W 123°25'0 0.0
2020-Mar-27 11:58N 48°41' W 123°25'0 0.0
2020-Mar-27 10:28N 48°41' W 123°25'0 0.0
2020-Mar-27 09:58N 48°41' W 123°25'0 0.0
2020-Mar-27 07:58N 48°41' W 123°25'0 0.0
2020-Mar-27 05:58N 48°41' W 123°25'18 7.4
2020-Mar-27 03:30N 48°57' W 123°11'18 3.0
2020-Mar-26 21:30N 48°42' W 123°24'815.6
2020-Mar-26 21:01N 48°49' W 123°21'8 2.7
2020-Mar-26 18:00N 48°41' W 123°25'1 1.1
2020-Mar-26 17:31N 48°42' W 123°24'13 5.1
2020-Mar-26 15:01N 48°53' W 123°17'13 8.7
2020-Mar-26 13:30N 48°41' W 123°25'0 0.0
2020-Mar-26 10:59N 48°41' W 123°25'0 0.0
2020-Mar-26 09:59N 48°41' W 123°25'0 0.0
2020-Mar-26 09:29N 48°41' W 123°25'0 0.0
2020-Mar-26 07:59N 48°41' W 123°25'0 0.0
2020-Mar-26 07:29N 48°41' W 123°25'0 0.0
2020-Mar-26 06:59N 48°41' W 123°25'0 0.0
2020-Mar-26 06:29N 48°41' W 123°25'0 0.0
2020-Mar-26 05:59N 48°41' W 123°25'0 0.1
2020-Mar-26 05:30N 48°41' W 123°25'1514.6
2020-Mar-26 04:30N 48°55' W 123°16'7 7.2
2020-Mar-26 03:31N 49°00' W 123°08'8 1.8
2020-Mar-25 23:00N 48°54' W 123°17'1 0.5
2020-Mar-25 20:30N 48°55' W 123°16'7 1.5
2020-Mar-25 15:30N 49°00' W 123°08'2210.9
2020-Mar-25 13:30N 48°41' W 123°25'0 0.0
2020-Mar-25 13:00N 48°41' W 123°25'0 0.0
2020-Mar-25 10:30N 48°41' W 123°25'0 0.0
2020-Mar-25 08:30N 48°41' W 123°25'0 0.0
2020-Mar-25 08:00N 48°41' W 123°25'0 0.1
2020-Mar-25 05:30N 48°41' W 123°25'1 0.2
2020-Mar-25 01:30N 48°42' W 123°23'917.1
2020-Mar-25 01:01N 48°50' W 123°21'815.7
2020-Mar-25 00:30N 48°56' W 123°14'5 3.3
2020-Mar-24 23:01N 48°52' W 123°18'11 7.5
2020-Mar-24 21:30N 48°42' W 123°23'2114.1
2020-Mar-24 20:00N 49°00' W 123°08'0 0.5
2020-Mar-24 19:30N 49°00' W 123°08'917.4
2020-Mar-24 19:01N 48°54' W 123°17'13 8.6
2020-Mar-24 17:30N 48°42' W 123°24'714.9
2020-Mar-24 17:00N 48°48' W 123°21'14 9.6
2020-Mar-24 15:30N 49°00' W 123°08'2214.6
2020-Mar-24 14:00N 48°41' W 123°25'0 0.1
2020-Mar-24 13:30N 48°41' W 123°25'0 0.0
2020-Mar-24 13:00N 48°41' W 123°25'0 0.0
2020-Mar-24 10:00N 48°41' W 123°25'0 0.0
2020-Mar-24 08:30N 48°41' W 123°25'0 0.0
2020-Mar-24 08:00N 48°41' W 123°25'0 0.0
2020-Mar-24 07:30N 48°41' W 123°25'0 0.0
2020-Mar-24 05:31N 48°41' W 123°25'1414.1
2020-Mar-24 04:30N 48°54' W 123°16'14 4.7
2020-Mar-24 01:30N 48°41' W 123°25'1414.4
2020-Mar-24 00:30N 48°55' W 123°16'8 7.8
2020-Mar-23 23:30N 49°00' W 123°08'  
Track history (hours):
 
Tides and Currents Weather Stations Pressure Air Temp Water Temp Dewpoint Dewpoint Depression Visibility Wind Speed Wind Dir Waves Ship Positions

Spirit Of Vi

Last reported at 2020-Apr-02 21:31 UTC. Time now 2020-Apr-02 23:01 UTC.
Position N 48°41' W 123°25'.

Length 167 m; draft 4.8 m.

Type: Passenger vessel. MMSI: 316001269.

Date/timePositionNaut miles runAvg speedWind from/ knotsBaromVisibWave heightAir tempDewpointWater temp
2020-Apr-02 21:31N 48°41' W 123°25'815.6
2020-Apr-02 21:01N 48°49' W 123°21'14 9.4
2020-Apr-02 19:31N 49°00' W 123°08'816.7
2020-Apr-02 19:01N 48°54' W 123°16'815.2
2020-Apr-02 18:31N 48°47' W 123°21'16 5.2
2020-Apr-02 15:30N 49°00' W 123°08'2210.8
2020-Apr-02 13:30N 48°41' W 123°25'0 0.0
2020-Apr-02 12:00N 48°41' W 123°25'0 0.0
2020-Apr-02 10:58N 48°41' W 123°25'0 0.0
2020-Apr-02 10:28N 48°41' W 123°25'0 0.0
2020-Apr-02 09:28N 48°41' W 123°25'0 0.0
2020-Apr-02 07:58N 48°41' W 123°25'0 0.0
2020-Apr-02 07:28N 48°41' W 123°25'0 0.0
2020-Apr-02 05:31N 48°41' W 123°25'6 2.1
2020-Apr-02 02:30N 48°47' W 123°21'612.9
2020-Apr-02 02:00N 48°41' W 123°25'13 4.3
2020-Apr-01 23:00N 48°53' W 123°17'714.1
2020-Apr-01 22:31N 48°47' W 123°21'6 5.8
2020-Apr-01 21:30N 48°41' W 123°25'815.5
2020-Apr-01 21:01N 48°49' W 123°21'2 0.7
2020-Apr-01 18:31N 48°47' W 123°21'611.9
2020-Apr-01 18:00N 48°41' W 123°25'7 7.5
2020-Apr-01 17:00N 48°48' W 123°21'815.2
2020-Apr-01 16:30N 48°55' W 123°16'15 2.5
2020-Apr-01 10:26N 48°41' W 123°25'0 0.0
2020-Apr-01 07:59N 48°41' W 123°25'0 0.0
2020-Apr-01 07:29N 48°41' W 123°25'0 0.0
2020-Mar-31 22:00N 48°41' W 123°25'8 7.8
2020-Mar-31 21:00N 48°49' W 123°21'713.5
2020-Mar-31 20:30N 48°55' W 123°16'15 5.8
2020-Mar-31 18:00N 48°41' W 123°25'1610.6
2020-Mar-31 16:30N 48°56' W 123°15'612.8
2020-Mar-31 16:00N 49°00' W 123°08'22 4.9
2020-Mar-31 11:29N 48°41' W 123°25'0 0.0
2020-Mar-31 10:59N 48°41' W 123°25'0 0.0
2020-Mar-31 09:59N 48°41' W 123°25'0 0.0
2020-Mar-31 09:29N 48°41' W 123°25'0 0.0
2020-Mar-31 08:29N 48°41' W 123°25'0 0.0
2020-Mar-31 07:29N 48°41' W 123°25'0 0.0
2020-Mar-31 06:29N 48°41' W 123°25'7 5.0
2020-Mar-31 05:00N 48°48' W 123°21'713.8
2020-Mar-31 04:30N 48°55' W 123°16'8 7.9
2020-Mar-31 03:30N 49°00' W 123°08'13 5.4
2020-Mar-31 01:00N 48°50' W 123°21'13 8.8
2020-Mar-30 23:31N 49°00' W 123°08'2210.9
2020-Mar-30 21:30N 48°41' W 123°25'714.5
2020-Mar-30 21:00N 48°48' W 123°21'7 2.0
2020-Mar-30 17:30N 48°42' W 123°24'1615.6
2020-Mar-30 16:31N 48°56' W 123°15'9 4.6
2020-Mar-30 14:30N 48°47' W 123°21'713.3
2020-Mar-30 14:01N 48°41' W 123°25'0 0.0
2020-Mar-30 12:00N 48°41' W 123°25'0 0.0
2020-Mar-30 10:30N 48°41' W 123°25'0 0.0
2020-Mar-30 08:30N 48°41' W 123°25'0 0.0
2020-Mar-30 08:00N 48°41' W 123°25'0 0.0
2020-Mar-30 06:00N 48°41' W 123°25'0 0.0
2020-Mar-30 05:30N 48°41' W 123°25'1414.3
2020-Mar-30 04:30N 48°55' W 123°17'14 5.7
2020-Mar-30 02:00N 48°41' W 123°25'1 2.6
2020-Mar-30 01:31N 48°42' W 123°23'5 1.8
2020-Mar-29 22:30N 48°47' W 123°20'5 5.4
2020-Mar-29 21:31N 48°42' W 123°23'1615.7
2020-Mar-29 20:31N 48°56' W 123°13'5 5.5
2020-Mar-29 19:31N 49°00' W 123°08'917.8
2020-Mar-29 19:00N 48°53' W 123°17'1312.9
2020-Mar-29 18:00N 48°41' W 123°25'0 0.3
2020-Mar-29 17:31N 48°41' W 123°25'1515.0
2020-Mar-29 16:30N 48°55' W 123°16'8 4.1
2020-Mar-29 14:30N 48°48' W 123°21'7 6.9
2020-Mar-29 13:30N 48°41' W 123°25'0 0.0
2020-Mar-29 13:00N 48°41' W 123°25'0 0.0
2020-Mar-29 12:27N 48°41' W 123°25'0 0.0
2020-Mar-29 11:30N 48°41' W 123°25'0 0.0
2020-Mar-29 08:59N 48°41' W 123°25'21 3.9
2020-Mar-29 03:30N 48°60' W 123°09'1514.5
2020-Mar-29 02:30N 48°48' W 123°21'15 6.0
2020-Mar-29 00:00N 49°00' W 123°08'0 0.1
2020-Mar-28 23:30N 49°00' W 123°08'13 5.0
2020-Mar-28 21:00N 48°51' W 123°21'11 7.2
2020-Mar-28 19:30N 48°59' W 123°10'1 0.2
2020-Mar-28 15:30N 48°59' W 123°09'21 6.9
2020-Mar-28 12:29N 48°41' W 123°25'0 0.0
2020-Mar-28 11:59N 48°41' W 123°25'0 0.0
2020-Mar-28 11:29N 48°41' W 123°25'0 0.0
2020-Mar-28 08:29N 48°41' W 123°25'0 0.0
2020-Mar-28 06:26N 48°41' W 123°25'0 0.0
2020-Mar-28 05:59N 48°41' W 123°25'11 3.8
2020-Mar-28 03:01N 48°52' W 123°18'917.0
2020-Mar-28 02:30N 48°44' W 123°24'3 5.8
2020-Mar-28 02:00N 48°41' W 123°25'10 9.9
2020-Mar-28 01:00N 48°51' W 123°21'6 2.2
2020-Mar-27 22:31N 48°46' W 123°22'4 4.1
2020-Mar-27 21:30N 48°42' W 123°24'7 1.7
2020-Mar-27 17:00N 48°49' W 123°21'713.9
2020-Mar-27 16:31N 48°55' W 123°16'815.0
2020-Mar-27 16:00N 49°00' W 123°08'9 9.1
2020-Mar-27 15:00N 48°53' W 123°17'13 8.7
2020-Mar-27 13:30N 48°41' W 123°25'0 0.0
2020-Mar-27 12:28N 48°41' W 123°25'0 0.0
2020-Mar-27 11:58N 48°41' W 123°25'0 0.0
2020-Mar-27 10:28N 48°41' W 123°25'0 0.0
2020-Mar-27 09:58N 48°41' W 123°25'0 0.0
2020-Mar-27 07:58N 48°41' W 123°25'0 0.0
2020-Mar-27 05:58N 48°41' W 123°25'18 7.4
2020-Mar-27 03:30N 48°57' W 123°11'18 3.0
2020-Mar-26 21:30N 48°42' W 123°24'815.6
2020-Mar-26 21:01N 48°49' W 123°21'8 2.7
2020-Mar-26 18:00N 48°41' W 123°25'1 1.1
2020-Mar-26 17:31N 48°42' W 123°24'13 5.1
2020-Mar-26 15:01N 48°53' W 123°17'13 8.7
2020-Mar-26 13:30N 48°41' W 123°25'0 0.0
2020-Mar-26 10:59N 48°41' W 123°25'0 0.0
2020-Mar-26 09:59N 48°41' W 123°25'0 0.0
2020-Mar-26 09:29N 48°41' W 123°25'0 0.0
2020-Mar-26 07:59N 48°41' W 123°25'0 0.0
2020-Mar-26 07:29N 48°41' W 123°25'0 0.0
2020-Mar-26 06:59N 48°41' W 123°25'0 0.0
2020-Mar-26 06:29N 48°41' W 123°25'0 0.0
2020-Mar-26 05:59N 48°41' W 123°25'0 0.1
2020-Mar-26 05:30N 48°41' W 123°25'1514.6
2020-Mar-26 04:30N 48°55' W 123°16'7 7.2
2020-Mar-26 03:31N 49°00' W 123°08'8 1.8
2020-Mar-25 23:00N 48°54' W 123°17'1 0.5
2020-Mar-25 20:30N 48°55' W 123°16'7 1.5
2020-Mar-25 15:30N 49°00' W 123°08'2210.9
2020-Mar-25 13:30N 48°41' W 123°25'0 0.0
2020-Mar-25 13:00N 48°41' W 123°25'0 0.0
2020-Mar-25 10:30N 48°41' W 123°25'0 0.0
2020-Mar-25 08:30N 48°41' W 123°25'0 0.0
2020-Mar-25 08:00N 48°41' W 123°25'0 0.1
2020-Mar-25 05:30N 48°41' W 123°25'1 0.2
2020-Mar-25 01:30N 48°42' W 123°23'917.1
2020-Mar-25 01:01N 48°50' W 123°21'815.7
2020-Mar-25 00:30N 48°56' W 123°14'5 3.3
2020-Mar-24 23:01N 48°52' W 123°18'11 7.5
2020-Mar-24 21:30N 48°42' W 123°23'2114.1
2020-Mar-24 20:00N 49°00' W 123°08'0 0.5
2020-Mar-24 19:30N 49°00' W 123°08'917.4
2020-Mar-24 19:01N 48°54' W 123°17'13 8.6
2020-Mar-24 17:30N 48°42' W 123°24'714.9
2020-Mar-24 17:00N 48°48' W 123°21'14 9.6
2020-Mar-24 15:30N 49°00' W 123°08'2214.6
2020-Mar-24 14:00N 48°41' W 123°25'0 0.1
2020-Mar-24 13:30N 48°41' W 123°25'0 0.0
2020-Mar-24 13:00N 48°41' W 123°25'0 0.0
2020-Mar-24 10:00N 48°41' W 123°25'0 0.0
2020-Mar-24 08:30N 48°41' W 123°25'0 0.0
2020-Mar-24 08:00N 48°41' W 123°25'0 0.0
2020-Mar-24 07:30N 48°41' W 123°25'0 0.0
2020-Mar-24 05:31N 48°41' W 123°25'1414.1
2020-Mar-24 04:30N 48°54' W 123°16'14 4.7
2020-Mar-24 01:30N 48°41' W 123°25'1414.4
2020-Mar-24 00:30N 48°55' W 123°16'8 7.8
2020-Mar-23 23:30N 49°00' W 123°08'  

Dump ship's entire track history